Time;durP1;ratioP1;P1;durP2;ratioP2;P2;SDS_P1;SDS_P2;PMS_P1;PMS_P2;Temp;Humidity;BMP_temperature;BMP_pressure;BME280_temperature;BME280_humidity;BME280_pressure;Samples;Min_cycle;Max_cycle;Signal;HPM_P1;HPM_P2
2021/05/27 00:00:48;;;;;;;3.63;3.33;;;;;;;;;;5072556;28;20244;-63
2021/05/27 00:03:14;;;;;;;3.67;3.30;;;;;;;;;;5071087;28;20183;-63
2021/05/27 00:05:40;;;;;;;3.83;3.43;;;;;;;;;;5090005;28;20171;-64
2021/05/27 00:08:06;;;;;;;4.20;3.80;;;;;;;;;;5070842;28;20190;-63
2021/05/27 00:10:33;;;;;;;3.90;3.50;;;;;;;;;;5090137;28;20179;-62
2021/05/27 00:12:59;;;;;;;4.90;4.50;;;;;;;;;;5089142;28;20190;-63
2021/05/27 00:15:27;;;;;;;4.87;4.27;;;;;;;;;;5088725;28;20598;-63
2021/05/27 00:17:54;;;;;;;5.40;3.70;;;;;;;;;;5074871;28;20179;-63
2021/05/27 00:20:20;;;;;;;4.87;4.47;;;;;;;;;;5090281;28;20187;-62
2021/05/27 00:22:46;;;;;;;4.60;4.13;;;;;;;;;;5089196;28;20208;-64
2021/05/27 00:25:13;;;;;;;4.80;4.40;;;;;;;;;;5089871;28;20180;-63
2021/05/27 00:27:39;;;;;;;6.13;4.43;;;;;;;;;;5086564;28;20188;-62
2021/05/27 00:30:06;;;;;;;5.33;4.83;;;;;;;;;;5090142;28;20559;-62
2021/05/27 00:32:32;;;;;;;7.17;5.57;;;;;;;;;;5072075;28;20203;-63
2021/05/27 00:34:58;;;;;;;5.83;4.93;;;;;;;;;;5071540;28;20184;-63
2021/05/27 00:37:24;;;;;;;8.07;5.87;;;;;;;;;;5088755;28;20214;-63
2021/05/27 00:39:50;;;;;;;6.27;5.60;;;;;;;;;;5088825;28;20175;-63
2021/05/27 00:42:16;;;;;;;7.80;6.33;;;;;;;;;;5071823;28;20206;-65
2021/05/27 00:44:43;;;;;;;5.70;5.20;;;;;;;;;;5089608;28;20229;-63
2021/05/27 00:47:10;;;;;;;7.63;6.30;;;;;;;;;;5089751;28;20713;-63
2021/05/27 00:49:37;;;;;;;7.33;6.63;;;;;;;;;;5090419;28;20611;-62
2021/05/27 00:52:03;;;;;;;7.03;5.97;;;;;;;;;;5088609;28;20188;-63
2021/05/27 00:54:29;;;;;;;6.83;6.23;;;;;;;;;;5093471;28;20251;-63
2021/05/27 00:56:55;;;;;;;9.17;7.33;;;;;;;;;;5089887;28;20266;-62
2021/05/27 00:59:21;;;;;;;6.63;6.03;;;;;;;;;;5089172;28;20638;-63
2021/05/27 01:01:50;;;;;;;7.23;6.53;;;;;;;;;;5071431;28;20200;-62
2021/05/27 01:04:16;;;;;;;7.63;6.87;;;;;;;;;;5089213;28;20176;-63
2021/05/27 01:06:42;;;;;;;7.40;6.70;;;;;;;;;;5089430;28;20175;-62
2021/05/27 01:09:08;;;;;;;6.57;5.97;;;;;;;;;;5089212;28;20176;-63
2021/05/27 01:11:34;;;;;;;6.87;6.27;;;;;;;;;;5089436;28;20183;-64
2021/05/27 01:17:14;;;;;;;7.70;6.80;;;;;;;;;;5075056;28;20512;-62
2021/05/27 01:19:40;;;;;;;6.80;6.10;;;;;;;;;;5092482;28;20190;-63
2021/05/27 01:22:06;;;;;;;6.77;6.17;;;;;;;;;;5073989;28;20184;-63
2021/05/27 01:24:33;;;;;;;6.30;5.53;;;;;;;;;;5092840;28;20183;-63
2021/05/27 01:27:00;;;;;;;7.23;5.53;;;;;;;;;;5074622;28;20627;-66
2021/05/27 01:29:26;;;;;;;5.97;5.37;;;;;;;;;;5092735;28;20246;-64
2021/05/27 01:31:52;;;;;;;5.37;4.70;;;;;;;;;;5093508;28;20918;-63
2021/05/27 01:34:18;;;;;;;8.30;6.00;;;;;;;;;;5092587;28;20195;-64
2021/05/27 01:36:45;;;;;;;6.47;5.23;;;;;;;;;;5092438;28;20172;-63
2021/05/27 01:39:11;;;;;;;5.53;4.70;;;;;;;;;;5091833;28;20234;-63
2021/05/27 01:41:37;;;;;;;6.43;4.90;;;;;;;;;;5092576;28;20274;-63
2021/05/27 01:44:03;;;;;;;7.93;5.40;;;;;;;;;;5074382;28;20179;-64
2021/05/27 01:46:29;;;;;;;9.60;5.03;;;;;;;;;;5092379;28;20221;-63
2021/05/27 01:48:55;;;;;;;5.47;4.07;;;;;;;;;;5092525;28;20179;-63
2021/05/27 01:51:21;;;;;;;4.77;4.37;;;;;;;;;;5073939;28;20189;-63
2021/05/27 01:53:48;;;;;;;5.32;4.38;;;;;;;;;;5090872;28;20417;-63
2021/05/27 01:56:14;;;;;;;4.90;4.50;;;;;;;;;;5091743;28;20195;-63
2021/05/27 01:58:40;;;;;;;6.67;4.27;;;;;;;;;;5078627;28;20180;-64
2021/05/27 02:01:06;;;;;;;4.90;4.40;;;;;;;;;;5092698;28;20732;-64
2021/05/27 02:03:32;;;;;;;4.33;3.93;;;;;;;;;;5077420;28;20536;-63
2021/05/27 02:05:58;;;;;;;4.43;3.97;;;;;;;;;;5074135;28;20560;-64
2021/05/27 02:08:25;;;;;;;3.93;3.60;;;;;;;;;;5090677;28;20171;-63
2021/05/27 02:10:51;;;;;;;4.43;3.77;;;;;;;;;;5073984;28;20176;-63
2021/05/27 02:13:17;;;;;;;5.13;4.07;;;;;;;;;;5087960;28;20615;-63
2021/05/27 02:15:43;;;;;;;4.50;3.80;;;;;;;;;;5091563;28;20654;-65
2021/05/27 02:18:09;;;;;;;5.27;4.13;;;;;;;;;;5091411;28;20185;-63
2021/05/27 02:20:35;;;;;;;4.60;4.20;;;;;;;;;;5091447;28;20199;-63
2021/05/27 02:23:01;;;;;;;4.27;3.70;;;;;;;;;;5090710;28;20190;-63
2021/05/27 02:25:27;;;;;;;4.90;4.47;;;;;;;;;;5091540;28;20180;-62
2021/05/27 02:27:55;;;;;;;4.43;4.03;;;;;;;;;;5090872;28;20176;-64
2021/05/27 02:30:22;;;;;;;5.10;4.47;;;;;;;;;;5073568;28;20194;-63
2021/05/27 02:32:48;;;;;;;4.43;3.90;;;;;;;;;;5091751;28;20176;-62
2021/05/27 02:35:14;;;;;;;5.27;4.63;;;;;;;;;;5091364;28;20179;-63
2021/05/27 02:37:40;;;;;;;7.17;4.97;;;;;;;;;;5071430;28;20315;-62
2021/05/27 02:40:07;;;;;;;6.03;4.93;;;;;;;;;;5091888;28;20188;-63
2021/05/27 02:42:33;;;;;;;5.17;4.47;;;;;;;;;;5090538;28;20187;-62
2021/05/27 02:44:59;;;;;;;6.80;4.93;;;;;;;;;;5075750;28;20193;-65
2021/05/27 02:47:25;;;;;;;5.40;4.90;;;;;;;;;;5090695;28;20176;-63
2021/05/27 02:49:51;;;;;;;8.30;5.07;;;;;;;;;;5091319;28;20526;-63
2021/05/27 02:52:17;;;;;;;4.83;4.20;;;;;;;;;;5090486;28;20564;-62
2021/05/27 02:54:43;;;;;;;7.77;5.03;;;;;;;;;;5091623;28;20168;-62
2021/05/27 02:57:09;;;;;;;8.93;5.50;;;;;;;;;;5090514;28;20190;-63
2021/05/27 02:59:35;;;;;;;6.43;4.93;;;;;;;;;;5091573;28;20176;-63
2021/05/27 03:02:02;;;;;;;5.97;4.73;;;;;;;;;;5090899;28;20215;-62
2021/05/27 03:04:28;;;;;;;6.03;5.40;;;;;;;;;;5086933;28;20203;-62
2021/05/27 03:06:54;;;;;;;7.87;5.13;;;;;;;;;;5090368;28;20184;-62
2021/05/27 03:09:20;;;;;;;8.33;6.20;;;;;;;;;;5090658;28;20195;-63
2021/05/27 03:11:46;;;;;;;9.50;6.33;;;;;;;;;;5069439;28;20659;-62
2021/05/27 03:14:12;;;;;;;7.00;6.30;;;;;;;;;;5088700;28;20200;-63
2021/05/27 03:16:38;;;;;;;8.30;7.40;;;;;;;;;;5090513;28;20172;-62
2021/05/27 03:19:04;;;;;;;8.80;7.07;;;;;;;;;;5072178;28;20187;-63
2021/05/27 03:21:30;;;;;;;7.30;6.57;;;;;;;;;;5090514;28;20286;-61
2021/05/27 03:23:56;;;;;;;8.17;7.10;;;;;;;;;;5079621;28;20260;-62
2021/05/27 03:26:22;;;;;;;7.70;6.63;;;;;;;;;;5062647;28;20205;-62
2021/05/27 03:28:48;;;;;;;10.33;7.07;;;;;;;;;;5077284;28;20176;-63
2021/05/27 03:31:14;;;;;;;7.97;7.13;;;;;;;;;;5090899;28;20530;-64
2021/05/27 03:33:40;;;;;;;11.07;7.97;;;;;;;;;;5090727;28;20569;-62
2021/05/27 03:36:06;;;;;;;7.67;6.70;;;;;;;;;;5090279;28;20183;-62
2021/05/27 03:38:32;;;;;;;8.73;7.83;;;;;;;;;;5086873;28;20229;-62
2021/05/27 03:40:59;;;;;;;9.93;7.53;;;;;;;;;;5090835;28;20206;-62
2021/05/27 03:43:24;;;;;;;9.57;7.03;;;;;;;;;;5090229;28;20187;-63
2021/05/27 03:45:50;;;;;;;7.67;6.33;;;;;;;;;;5072310;28;20180;-63
2021/05/27 03:48:17;;;;;;;8.20;7.40;;;;;;;;;;5089368;28;20172;-65
2021/05/27 03:50:43;;;;;;;8.60;7.77;;;;;;;;;;5070590;28;20642;-63
2021/05/27 03:53:09;;;;;;;8.53;7.73;;;;;;;;;;5090448;28;20217;-65
2021/05/27 03:55:35;;;;;;;7.83;7.03;;;;;;;;;;5081149;28;20210;-63
2021/05/27 04:00:40;;;;;;;10.23;6.93;;;;;;;;;;5072210;28;20219;-62
2021/05/27 04:00:48;;;;;;;9.20;7.00;;;;;;;;;;5090501;28;20202;-63
2021/05/27 04:03:14;;;;;;;8.43;7.17;;;;;;;;;;5089173;28;20184;-62
2021/05/27 04:08:25;;;;;;;10.57;7.93;;;;;;;;;;5085080;28;20294;-64
2021/05/27 04:10:51;;;;;;;8.50;7.57;;;;;;;;;;5087440;28;20187;-62
2021/05/27 04:13:17;;;;;;;9.40;7.40;;;;;;;;;;5086530;28;20266;-63
2021/05/27 04:15:43;;;;;;;12.63;7.70;;;;;;;;;;5068591;28;20199;-63
2021/05/27 04:18:11;;;;;;;12.27;8.10;;;;;;;;;;5087529;28;20183;-63
2021/05/27 04:20:46;;;;;;;10.73;7.90;;;;;;;;;;5089216;28;20206;-63
2021/05/27 04:23:12;;;;;;;8.77;7.63;;;;;;;;;;5087046;28;20175;-62
2021/05/27 04:25:42;;;;;;;14.00;9.47;;;;;;;;;;5070836;28;20567;-62
2021/05/27 04:28:08;;;;;;;12.00;8.83;;;;;;;;;;5064858;28;20274;-62
2021/05/27 04:31:08;;;;;;;12.10;9.30;;;;;;;;;;5069898;28;20185;-62
2021/05/27 04:33:21;;;;;;;12.37;9.27;;;;;;;;;;5086081;28;20210;-62
2021/05/27 04:35:47;;;;;;;13.07;10.33;;;;;;;;;;5088055;28;20328;-62
2021/05/27 04:38:14;;;;;;;12.90;9.57;;;;;;;;;;5062947;28;20215;-61
2021/05/27 04:40:42;;;;;;;12.93;10.93;;;;;;;;;;5088565;28;20208;-62
2021/05/27 04:43:08;;;;;;;14.20;9.30;;;;;;;;;;5086954;28;20180;-61
2021/05/27 04:45:34;;;;;;;14.07;9.90;;;;;;;;;;5071099;28;20225;-61
2021/05/27 04:48:03;;;;;;;13.20;9.70;;;;;;;;;;5067645;28;20310;-61
2021/05/27 04:50:31;;;;;;;12.13;9.60;;;;;;;;;;5071927;28;20187;-61
2021/05/27 04:52:57;;;;;;;13.87;10.23;;;;;;;;;;5090594;28;20188;-61
2021/05/27 04:55:23;;;;;;;12.80;10.90;;;;;;;;;;5093118;28;20156;-61
2021/05/27 04:57:49;;;;;;;12.83;10.30;;;;;;;;;;5093439;28;20176;-60
2021/05/27 05:00:16;;;;;;;14.40;10.37;;;;;;;;;;5087134;28;20210;-60
2021/05/27 05:02:42;;;;;;;16.07;11.03;;;;;;;;;;5077296;28;20233;-61
2021/05/27 05:05:09;;;;;;;14.43;10.30;;;;;;;;;;5089438;28;20259;-61
2021/05/27 05:07:36;;;;;;;15.10;10.90;;;;;;;;;;5077546;28;20179;-61
2021/05/27 05:10:02;;;;;;;15.80;10.50;;;;;;;;;;5086943;28;20180;-61
2021/05/27 05:12:28;;;;;;;13.43;9.73;;;;;;;;;;5083180;28;20180;-62
2021/05/27 05:14:54;;;;;;;12.90;11.13;;;;;;;;;;5073353;28;20688;-61
2021/05/27 05:17:20;;;;;;;15.47;10.97;;;;;;;;;;5069683;28;20184;-61
2021/05/27 05:19:46;;;;;;;12.93;10.93;;;;;;;;;;5092662;28;20249;-60
2021/05/27 05:22:12;;;;;;;13.07;11.67;;;;;;;;;;5071376;28;20215;-61
2021/05/27 05:24:38;;;;;;;14.03;11.00;;;;;;;;;;5080263;28;20172;-61
2021/05/27 05:27:04;;;;;;;17.60;12.47;;;;;;;;;;5083278;28;20646;-60
2021/05/27 05:29:30;;;;;;;13.03;11.63;;;;;;;;;;5092356;28;20172;-60
2021/05/27 05:31:56;;;;;;;13.10;11.70;;;;;;;;;;5079227;28;20625;-62
2021/05/27 05:34:22;;;;;;;13.60;11.80;;;;;;;;;;5076690;28;20192;-60
2021/05/27 05:36:49;;;;;;;16.87;12.60;;;;;;;;;;5071697;28;20184;-60
2021/05/27 05:39:15;;;;;;;17.07;14.03;;;;;;;;;;5071242;28;20624;-60
2021/05/27 05:41:41;;;;;;;13.80;12.07;;;;;;;;;;5086201;28;20287;-61
2021/05/27 05:44:07;;;;;;;16.73;12.20;;;;;;;;;;5089704;28;20665;-61
2021/05/27 05:46:33;;;;;;;16.17;12.80;;;;;;;;;;5078141;28;20203;-60
2021/05/27 05:48:59;;;;;;;16.53;12.40;;;;;;;;;;5084212;28;20618;-60
2021/05/27 05:51:25;;;;;;;15.53;13.47;;;;;;;;;;5086940;28;20180;-60
2021/05/27 05:53:51;;;;;;;16.27;13.10;;;;;;;;;;5081850;28;20168;-61
2021/05/27 05:56:17;;;;;;;14.57;13.03;;;;;;;;;;5057132;28;20183;-61
2021/05/27 05:58:43;;;;;;;14.73;12.23;;;;;;;;;;5088217;28;20236;-61
2021/05/27 06:01:09;;;;;;;14.33;11.17;;;;;;;;;;5088571;28;20580;-63
2021/05/27 06:03:35;;;;;;;16.80;13.27;;;;;;;;;;5063179;28;20619;-61
2021/05/27 06:06:02;;;;;;;14.23;12.70;;;;;;;;;;5071036;28;20179;-61
2021/05/27 06:08:28;;;;;;;14.47;11.80;;;;;;;;;;5064280;28;20273;-62
2021/05/27 06:10:54;;;;;;;16.53;13.33;;;;;;;;;;5074141;28;20688;-61
2021/05/27 06:13:20;;;;;;;16.60;12.80;;;;;;;;;;5087738;28;20237;-62
2021/05/27 06:15:46;;;;;;;16.37;13.27;;;;;;;;;;5095181;28;20218;-61
2021/05/27 06:18:12;;;;;;;13.23;11.60;;;;;;;;;;5072489;28;20769;-61
2021/05/27 06:20:38;;;;;;;15.73;12.47;;;;;;;;;;5067467;28;20207;-62
2021/05/27 06:23:05;;;;;;;13.93;11.43;;;;;;;;;;5090356;28;20536;-61
2021/05/27 06:25:32;;;;;;;16.00;13.40;;;;;;;;;;5083307;28;20204;-60
2021/05/27 06:27:58;;;;;;;13.07;11.70;;;;;;;;;;5088118;28;20172;-61
2021/05/27 06:30:28;;;;;;;12.97;11.30;;;;;;;;;;5086037;28;20188;-60
2021/05/27 06:32:54;;;;;;;12.67;11.30;;;;;;;;;;5072046;28;20169;-61
2021/05/27 06:35:20;;;;;;;12.60;11.20;;;;;;;;;;5056417;28;20196;-60
2021/05/27 06:37:46;;;;;;;13.53;11.57;;;;;;;;;;5075883;28;20264;-61
2021/05/27 06:40:14;;;;;;;14.87;12.00;;;;;;;;;;5091223;28;20272;-61
2021/05/27 06:42:40;;;;;;;15.93;11.53;;;;;;;;;;5081436;28;20180;-60
2021/05/27 06:45:06;;;;;;;14.43;11.07;;;;;;;;;;5072274;28;20182;-61
2021/05/27 06:47:32;;;;;;;14.57;10.30;;;;;;;;;;5089669;28;20180;-61
2021/05/27 06:49:58;;;;;;;13.43;9.83;;;;;;;;;;5071000;28;20879;-61
2021/05/27 06:52:25;;;;;;;11.47;9.73;;;;;;;;;;5072121;28;20172;-61
2021/05/27 06:54:52;;;;;;;13.53;10.13;;;;;;;;;;5088631;28;20619;-61
2021/05/27 06:57:18;;;;;;;12.93;10.30;;;;;;;;;;5090167;28;20278;-61
2021/05/27 06:59:44;;;;;;;11.83;9.70;;;;;;;;;;5087491;28;20577;-60
2021/05/27 07:02:10;;;;;;;10.53;9.30;;;;;;;;;;5088587;28;20533;-61
2021/05/27 07:04:36;;;;;;;10.87;9.10;;;;;;;;;;5090202;28;20174;-60
2021/05/27 07:07:02;;;;;;;12.43;9.93;;;;;;;;;;5089317;28;20225;-60
2021/05/27 07:09:31;;;;;;;11.27;9.10;;;;;;;;;;5089372;28;20588;-62
2021/05/27 07:11:57;;;;;;;9.63;8.57;;;;;;;;;;5082607;28;20250;-61
2021/05/27 07:14:24;;;;;;;11.13;8.77;;;;;;;;;;5073449;28;20669;-61
2021/05/27 07:16:50;;;;;;;14.23;8.70;;;;;;;;;;5072414;28;20518;-61
2021/05/27 07:19:16;;;;;;;12.47;9.10;;;;;;;;;;5089142;28;20201;-61
2021/05/27 07:21:44;;;;;;;11.97;9.00;;;;;;;;;;5088354;28;20195;-61
2021/05/27 07:24:12;;;;;;;8.90;8.00;;;;;;;;;;5071954;28;20634;-61
2021/05/27 07:26:38;;;;;;;10.87;8.03;;;;;;;;;;5072093;28;20191;-61
2021/05/27 07:29:04;;;;;;;10.97;8.17;;;;;;;;;;5088322;28;20176;-62
2021/05/27 07:31:32;;;;;;;10.67;6.93;;;;;;;;;;5089984;28;20191;-61
2021/05/27 07:33:58;;;;;;;11.73;8.07;;;;;;;;;;5081678;28;20183;-61
2021/05/27 07:36:24;;;;;;;9.30;7.27;;;;;;;;;;5074264;28;20175;-62
2021/05/27 07:38:50;;;;;;;9.43;7.40;;;;;;;;;;5080362;28;20651;-61
2021/05/27 07:41:16;;;;;;;11.00;7.37;;;;;;;;;;5072291;28;20227;-61
2021/05/27 07:43:43;;;;;;;9.60;7.93;;;;;;;;;;5077338;28;20442;-62
2021/05/27 07:46:09;;;;;;;8.90;6.70;;;;;;;;;;5071326;28;20177;-63
2021/05/27 07:48:36;;;;;;;9.83;6.60;;;;;;;;;;5082128;28;20175;-61
2021/05/27 07:51:02;;;;;;;10.93;6.80;;;;;;;;;;5074913;28;20192;-61
2021/05/27 07:53:30;;;;;;;9.53;7.20;;;;;;;;;;5074826;28;20180;-62
2021/05/27 07:55:56;;;;;;;9.73;7.07;;;;;;;;;;5054805;28;20206;-61
2021/05/27 07:58:22;;;;;;;8.07;6.87;;;;;;;;;;5072610;28;20192;-61
2021/05/27 08:00:49;;;;;;;7.87;6.80;;;;;;;;;;5072619;28;20226;-61
2021/05/27 08:03:15;;;;;;;10.53;6.83;;;;;;;;;;5067781;28;20180;-61
2021/05/27 08:05:41;;;;;;;8.47;6.43;;;;;;;;;;5071087;28;20237;-61
2021/05/27 08:08:07;;;;;;;15.00;6.80;;;;;;;;;;5085662;28;20195;-61
2021/05/27 08:10:33;;;;;;;9.97;6.60;;;;;;;;;;5088256;28;20184;-61
2021/05/27 08:12:59;;;;;;;10.77;7.23;;;;;;;;;;5088592;28;20183;-61
2021/05/27 08:15:25;;;;;;;6.17;5.57;;;;;;;;;;5071827;28;20344;-61
2021/05/27 08:17:51;;;;;;;12.37;6.77;;;;;;;;;;5066058;28;20271;-61
2021/05/27 08:20:17;;;;;;;8.27;5.90;;;;;;;;;;5077143;28;20669;-61
2021/05/27 08:22:43;;;;;;;8.80;6.20;;;;;;;;;;5055701;28;20176;-61
2021/05/27 08:25:09;;;;;;;8.13;6.80;;;;;;;;;;5092594;28;20174;-61
2021/05/27 08:27:36;;;;;;;6.87;5.97;;;;;;;;;;5091643;28;20183;-61
2021/05/27 08:30:02;;;;;;;7.67;6.37;;;;;;;;;;5093531;28;20184;-61
2021/05/27 08:32:28;;;;;;;8.10;6.60;;;;;;;;;;5088209;28;20204;-59
2021/05/27 08:34:54;;;;;;;8.17;5.97;;;;;;;;;;5093929;28;20178;-59
2021/05/27 08:37:20;;;;;;;7.77;5.80;;;;;;;;;;5085987;28;20252;-61
2021/05/27 08:39:47;;;;;;;9.53;6.77;;;;;;;;;;5082471;28;20215;-59
2021/05/27 08:42:13;;;;;;;7.03;5.73;;;;;;;;;;5077382;28;20199;-59
2021/05/27 08:44:41;;;;;;;6.47;5.10;;;;;;;;;;5073561;28;20257;-59
2021/05/27 08:47:07;;;;;;;6.93;6.23;;;;;;;;;;5085609;28;20179;-59
2021/05/27 08:49:35;;;;;;;8.07;6.27;;;;;;;;;;5074345;28;20171;-59
2021/05/27 08:52:01;;;;;;;7.73;5.70;;;;;;;;;;5090914;28;20234;-59
2021/05/27 08:54:27;;;;;;;8.17;5.97;;;;;;;;;;5072040;28;20173;-59
2021/05/27 08:56:53;;;;;;;10.27;6.07;;;;;;;;;;5086932;28;20187;-59
2021/05/27 08:59:19;;;;;;;6.83;5.97;;;;;;;;;;5093474;28;20184;-60
2021/05/27 09:02:02;;;;;;;10.10;6.13;;;;;;;;;;5091677;28;20286;-62
2021/05/27 09:04:28;;;;;;;6.73;6.07;;;;;;;;;;5072664;28;20255;-61
2021/05/27 09:06:54;;;;;;;7.60;6.13;;;;;;;;;;5063405;28;20171;-62
2021/05/27 09:09:20;;;;;;;8.13;5.77;;;;;;;;;;5086076;28;20172;-61
2021/05/27 09:11:47;;;;;;;10.20;6.47;;;;;;;;;;5084936;28;20192;-62
2021/05/27 09:14:13;;;;;;;7.27;6.53;;;;;;;;;;5086746;28;20667;-62
2021/05/27 09:16:55;;;;;;;6.17;5.57;;;;;;;;;;5090425;28;20208;-62
2021/05/27 09:19:22;;;;;;;7.73;5.63;;;;;;;;;;5093258;28;20255;-62
2021/05/27 09:21:48;;;;;;;7.00;6.20;;;;;;;;;;5073798;28;20646;-62
2021/05/27 09:24:14;;;;;;;9.00;5.97;;;;;;;;;;5068280;28;20195;-62
2021/05/27 09:26:50;;;;;;;8.37;5.90;;;;;;;;;;5083402;28;20565;-61
2021/05/27 09:29:23;;;;;;;9.37;6.80;;;;;;;;;;5070951;28;20187;-62
2021/05/27 09:32:04;;;;;;;9.00;5.70;;;;;;;;;;5079085;28;20198;-62
2021/05/27 09:34:44;;;;;;;6.30;5.57;;;;;;;;;;5077620;28;20191;-62
2021/05/27 09:37:27;;;;;;;6.50;5.17;;;;;;;;;;5072413;28;20274;-62
2021/05/27 09:39:54;;;;;;;6.37;5.77;;;;;;;;;;5085967;28;20685;-61
2021/05/27 09:42:20;;;;;;;6.83;5.77;;;;;;;;;;5083823;28;20211;-62
2021/05/27 09:44:46;;;;;;;5.97;5.40;;;;;;;;;;5087189;28;20203;-62
2021/05/27 09:47:12;;;;;;;6.40;5.07;;;;;;;;;;5074869;28;20230;-62
2021/05/27 09:49:57;;;;;;;7.00;6.30;;;;;;;;;;5089796;28;20318;-62
2021/05/27 09:52:25;;;;;;;6.30;5.40;;;;;;;;;;5082126;28;20210;-61
2021/05/27 09:54:52;;;;;;;7.00;5.40;;;;;;;;;;5073287;28;20237;-64
2021/05/27 09:57:28;;;;;;;8.67;6.87;;;;;;;;;;5085560;28;20300;-63
2021/05/27 09:59:56;;;;;;;7.17;5.83;;;;;;;;;;5082499;28;20545;-62
2021/05/27 10:02:23;;;;;;;6.47;5.70;;;;;;;;;;5085336;28;20609;-62
2021/05/27 10:04:58;;;;;;;6.70;5.63;;;;;;;;;;5089253;28;20210;-61
2021/05/27 10:07:53;;;;;;;6.10;5.50;;;;;;;;;;5080990;28;20541;-62
2021/05/27 10:10:20;;;;;;;6.20;5.60;;;;;;;;;;5063476;28;20188;-62
2021/05/27 10:12:47;;;;;;;11.77;6.50;;;;;;;;;;5063609;28;20290;-64
2021/05/27 10:18:42;;;;;;;6.30;5.60;;;;;;;;;;5074461;28;20237;-62
2021/05/27 10:21:09;;;;;;;5.70;4.60;;;;;;;;;;5067904;28;20629;-63
2021/05/27 10:53:40;;;;;;;5.30;4.80;;;;;;;;;;5063974;27;21257;-62
2021/05/27 10:56:09;;;;;;;5.90;5.30;;;;;;;;;;5056545;28;20267;-61
2021/05/27 10:58:53;;;;;;;5.70;4.70;;;;;;;;;;5066164;28;20198;-60
2021/05/27 11:01:20;;;;;;;7.83;5.17;;;;;;;;;;5083211;28;20715;-60
2021/05/27 11:03:50;;;;;;;4.73;4.20;;;;;;;;;;5069457;28;20172;-60
2021/05/27 11:06:35;;;;;;;5.23;3.90;;;;;;;;;;5084140;28;20172;-59
2021/05/27 11:11:44;;;;;;;4.63;4.20;;;;;;;;;;5075221;28;20264;-60
2021/05/27 11:14:17;;;;;;;6.40;4.67;;;;;;;;;;5064069;28;20204;-60
2021/05/27 11:17:12;;;;;;;8.20;4.20;;;;;;;;;;5066840;28;20301;-60
2021/05/27 11:19:55;;;;;;;6.27;4.43;;;;;;;;;;5066099;28;20615;-62
2021/05/27 11:22:39;;;;;;;6.13;4.47;;;;;;;;;;5066656;28;20303;-62
2021/05/27 11:25:08;;;;;;;5.97;4.00;;;;;;;;;;5067090;28;20271;-62
2021/05/27 11:27:35;;;;;;;7.77;3.87;;;;;;;;;;5068159;28;20186;-62
2021/05/27 11:30:14;;;;;;;5.43;4.77;;;;;;;;;;5076663;28;20176;-62
2021/05/27 11:32:40;;;;;;;5.33;3.70;;;;;;;;;;5086782;28;20677;-62
2021/05/27 11:35:06;;;;;;;4.63;3.77;;;;;;;;;;5064982;28;20194;-64
2021/05/27 11:37:36;;;;;;;6.43;4.30;;;;;;;;;;5065141;28;20745;-63
2021/05/27 11:40:04;;;;;;;4.20;3.80;;;;;;;;;;5061881;28;20179;-62
2021/05/27 11:42:31;;;;;;;5.33;4.23;;;;;;;;;;5062836;28;20785;-62
2021/05/27 11:44:57;;;;;;;5.60;3.93;;;;;;;;;;5061173;28;20642;-62
2021/05/27 11:47:23;;;;;;;5.00;3.70;;;;;;;;;;5085271;28;20180;-62
2021/05/27 11:50:04;;;;;;;5.73;4.23;;;;;;;;;;5080007;28;20183;-62
2021/05/27 11:52:32;;;;;;;6.77;4.23;;;;;;;;;;5065452;28;20178;-61
2021/05/27 11:54:58;;;;;;;5.03;3.37;;;;;;;;;;5079760;28;20234;-62
2021/05/27 11:57:40;;;;;;;6.53;4.17;;;;;;;;;;5067065;28;20180;-61
2021/05/27 12:00:07;;;;;;;4.53;3.70;;;;;;;;;;5072294;28;20187;-61
2021/05/27 12:02:42;;;;;;;5.53;4.20;;;;;;;;;;5071630;28;20652;-62
2021/05/27 12:05:19;;;;;;;4.67;4.17;;;;;;;;;;5076429;28;20193;-62
2021/05/27 12:08:03;;;;;;;4.80;3.97;;;;;;;;;;5079731;28;20191;-61
2021/05/27 12:10:31;;;;;;;5.20;3.80;;;;;;;;;;5078584;28;20634;-61
2021/05/27 12:12:57;;;;;;;4.87;4.30;;;;;;;;;;5063908;28;20698;-63
2021/05/27 12:15:24;;;;;;;5.80;4.37;;;;;;;;;;5081951;28;20230;-61
2021/05/27 12:17:52;;;;;;;7.73;4.33;;;;;;;;;;5087890;28;20191;-61
2021/05/27 12:20:30;;;;;;;5.17;4.13;;;;;;;;;;5070398;28;20186;-61
2021/05/27 12:22:56;;;;;;;6.23;4.57;;;;;;;;;;5069813;28;20505;-61
2021/05/27 12:25:24;;;;;;;6.00;4.90;;;;;;;;;;5063771;28;20226;-61
2021/05/27 12:27:51;;;;;;;4.77;4.33;;;;;;;;;;5082143;28;20184;-62
2021/05/27 12:30:25;;;;;;;6.13;5.47;;;;;;;;;;5082046;28;20183;-63
2021/05/27 12:32:52;;;;;;;6.57;4.57;;;;;;;;;;5081294;28;20207;-63
2021/05/27 12:35:20;;;;;;;10.77;5.97;;;;;;;;;;5089413;28;20237;-61
2021/05/27 12:37:47;;;;;;;7.43;6.00;;;;;;;;;;5089118;28;20233;-62
2021/05/27 12:40:17;;;;;;;6.17;5.23;;;;;;;;;;5079521;28;20237;-61
2021/05/27 12:42:43;;;;;;;7.43;6.20;;;;;;;;;;5081921;28;20543;-61
2021/05/27 12:45:30;;;;;;;7.70;5.87;;;;;;;;;;5063089;28;20233;-61
2021/05/27 12:48:22;;;;;;;8.57;5.80;;;;;;;;;;5085981;28;20179;-61
2021/05/27 12:50:55;;;;;;;6.47;5.80;;;;;;;;;;5056174;28;20200;-64
2021/05/27 12:53:28;;;;;;;7.00;5.70;;;;;;;;;;5079771;28;20207;-61
2021/05/27 12:55:55;;;;;;;7.63;6.40;;;;;;;;;;5083018;28;20484;-61
2021/05/27 12:58:39;;;;;;;9.00;6.37;;;;;;;;;;5068588;28;20697;-61
2021/05/27 13:01:06;;;;;;;8.23;6.03;;;;;;;;;;5088082;28;20219;-61
2021/05/27 13:03:42;;;;;;;8.07;6.77;;;;;;;;;;5088629;28;20184;-62
2021/05/27 13:06:10;;;;;;;7.70;6.20;;;;;;;;;;5085650;28;20183;-61
2021/05/27 13:08:36;;;;;;;9.70;6.83;;;;;;;;;;5067843;28;20241;-64
2021/05/27 13:11:19;;;;;;;6.27;5.67;;;;;;;;;;5082810;28;20184;-64
2021/05/27 13:13:45;;;;;;;8.93;6.47;;;;;;;;;;5086242;28;20676;-62
2021/05/27 13:16:30;;;;;;;10.73;6.73;;;;;;;;;;5086732;28;20179;-61
2021/05/27 13:18:56;;;;;;;10.27;7.03;;;;;;;;;;5091001;28;20175;-62
2021/05/27 13:21:23;;;;;;;11.13;7.00;;;;;;;;;;5072048;28;20207;-63
2021/05/27 13:23:49;;;;;;;7.83;6.27;;;;;;;;;;5085464;28;20190;-63
2021/05/27 13:26:19;;;;;;;5.90;5.20;;;;;;;;;;5066667;28;20271;-62
2021/05/27 13:28:45;;;;;;;8.27;6.33;;;;;;;;;;5066182;28;20268;-62
2021/05/27 13:31:12;;;;;;;8.20;6.23;;;;;;;;;;5088453;28;20717;-61
2021/05/27 13:33:39;;;;;;;8.77;6.67;;;;;;;;;;5090375;28;20183;-62
2021/05/27 13:36:05;;;;;;;9.37;6.57;;;;;;;;;;5089317;28;20279;-61
2021/05/27 13:38:33;;;;;;;7.23;5.63;;;;;;;;;;5088229;28;20721;-63
2021/05/27 13:41:01;;;;;;;9.67;6.10;;;;;;;;;;5079097;28;20211;-62
2021/05/27 13:43:34;;;;;;;8.93;6.33;;;;;;;;;;5084157;28;20179;-61
2021/05/27 13:46:07;;;;;;;7.90;5.80;;;;;;;;;;5084350;28;20181;-61
2021/05/27 13:48:34;;;;;;;7.93;5.80;;;;;;;;;;5067775;28;20216;-62
2021/05/27 13:51:01;;;;;;;7.30;5.70;;;;;;;;;;5088510;28;20233;-62
2021/05/27 13:53:27;;;;;;;9.97;5.80;;;;;;;;;;5084059;28;20194;-61
2021/05/27 13:55:55;;;;;;;7.00;5.73;;;;;;;;;;5061007;28;20195;-63
2021/05/27 13:58:22;;;;;;;8.80;5.93;;;;;;;;;;5087163;28;20187;-65
2021/05/27 14:00:48;;;;;;;10.03;5.73;;;;;;;;;;5085964;28;20298;-62
2021/05/27 14:03:15;;;;;;;6.90;5.50;;;;;;;;;;5088249;28;20593;-63
2021/05/27 14:05:41;;;;;;;5.50;4.83;;;;;;;;;;5064307;28;20673;-62
2021/05/27 14:08:08;;;;;;;7.47;5.73;;;;;;;;;;5089750;28;20850;-62
2021/05/27 14:10:34;;;;;;;9.73;6.57;;;;;;;;;;5067045;28;20211;-62
2021/05/27 14:13:05;;;;;;;8.50;6.53;;;;;;;;;;5084665;28;20187;-63
2021/05/27 14:15:31;;;;;;;7.83;5.87;;;;;;;;;;5065802;28;20543;-62
2021/05/27 14:17:57;;;;;;;7.20;6.17;;;;;;;;;;5068984;28;20565;-62
2021/05/27 14:20:23;;;;;;;6.50;5.90;;;;;;;;;;5081105;28;20668;-62
2021/05/27 14:22:51;;;;;;;9.03;6.23;;;;;;;;;;5067044;28;20533;-63
2021/05/27 14:25:17;;;;;;;6.73;5.13;;;;;;;;;;5081298;28;20673;-62
2021/05/27 14:27:43;;;;;;;8.03;5.83;;;;;;;;;;5089773;28;20184;-64
2021/05/27 14:30:10;;;;;;;8.37;7.40;;;;;;;;;;5074667;28;20194;-64
2021/05/27 14:32:36;;;;;;;7.17;5.83;;;;;;;;;;5081410;28;20191;-62
2021/05/27 14:35:03;;;;;;;6.07;5.07;;;;;;;;;;5089502;28;20202;-62
2021/05/27 14:37:29;;;;;;;8.50;5.53;;;;;;;;;;5088867;28;20175;-63
2021/05/27 14:39:55;;;;;;;7.83;5.43;;;;;;;;;;5060472;28;20191;-65
2021/05/27 14:42:21;;;;;;;7.23;5.33;;;;;;;;;;5081336;28;20603;-63
2021/05/27 14:44:47;;;;;;;9.67;6.60;;;;;;;;;;5081459;28;20179;-62
2021/05/27 14:47:13;;;;;;;6.70;4.50;;;;;;;;;;5088184;28;20590;-62
2021/05/27 14:49:39;;;;;;;6.13;4.97;;;;;;;;;;5070613;28;20389;-65
2021/05/27 14:52:05;;;;;;;6.83;5.40;;;;;;;;;;5088627;28;20275;-62
2021/05/27 14:54:31;;;;;;;6.63;5.33;;;;;;;;;;5083646;28;20334;-62
2021/05/27 14:56:58;;;;;;;7.37;5.27;;;;;;;;;;5066971;28;20570;-62
2021/05/27 14:59:24;;;;;;;4.63;4.23;;;;;;;;;;5064897;28;20302;-62
2021/05/27 15:01:50;;;;;;;6.37;5.00;;;;;;;;;;5064855;28;20331;-65
2021/05/27 15:04:16;;;;;;;6.20;4.20;;;;;;;;;;5090276;28;20634;-62
2021/05/27 15:06:42;;;;;;;6.20;5.60;;;;;;;;;;5090593;28;20179;-62
2021/05/27 15:09:09;;;;;;;6.33;5.13;;;;;;;;;;5089875;28;20191;-60
2021/05/27 15:11:35;;;;;;;6.10;4.63;;;;;;;;;;5062511;28;20229;-63
2021/05/27 15:14:01;;;;;;;5.63;4.67;;;;;;;;;;5085562;28;20670;-62
2021/05/27 15:16:27;;;;;;;8.17;6.00;;;;;;;;;;5086804;28;20183;-61
2021/05/27 15:18:53;;;;;;;7.17;5.60;;;;;;;;;;5088773;28;20237;-61
2021/05/27 15:21:20;;;;;;;7.60;4.43;;;;;;;;;;5088007;28;20188;-61
2021/05/27 15:23:46;;;;;;;5.73;4.30;;;;;;;;;;5083487;28;20176;-61